sensor_id;sensor_type;location;lat;lon;timestamp;P1;durP1;ratioP1;P2;durP2;ratioP2
23714;SDS011;12036;50.858;4.472;2023-04-25T00:01:47;14.38;;;3.40;;
23714;SDS011;12036;50.858;4.472;2023-04-25T00:04:13;13.32;;;3.47;;
23714;SDS011;12036;50.858;4.472;2023-04-25T00:06:38;15.07;;;3.22;;
23714;SDS011;12036;50.858;4.472;2023-04-25T00:09:05;20.52;;;3.47;;
23714;SDS011;12036;50.858;4.472;2023-04-25T00:11:36;21.52;;;4.10;;
23714;SDS011;12036;50.858;4.472;2023-04-25T00:14:03;12.77;;;3.83;;
23714;SDS011;12036;50.858;4.472;2023-04-25T00:16:29;15.13;;;2.97;;
23714;SDS011;12036;50.858;4.472;2023-04-25T00:18:58;13.27;;;3.28;;
23714;SDS011;12036;50.858;4.472;2023-04-25T00:21:24;14.90;;;3.55;;
23714;SDS011;12036;50.858;4.472;2023-04-25T00:23:52;15.73;;;3.80;;
23714;SDS011;12036;50.858;4.472;2023-04-25T00:26:18;16.48;;;3.42;;
23714;SDS011;12036;50.858;4.472;2023-04-25T00:28:43;17.23;;;3.63;;
23714;SDS011;12036;50.858;4.472;2023-04-25T00:31:09;11.68;;;3.08;;
23714;SDS011;12036;50.858;4.472;2023-04-25T00:33:35;11.27;;;3.50;;
23714;SDS011;12036;50.858;4.472;2023-04-25T00:36:01;10.95;;;3.25;;
23714;SDS011;12036;50.858;4.472;2023-04-25T00:38:26;13.20;;;3.25;;
23714;SDS011;12036;50.858;4.472;2023-04-25T00:40:52;12.80;;;3.05;;
23714;SDS011;12036;50.858;4.472;2023-04-25T00:43:18;15.70;;;3.83;;
23714;SDS011;12036;50.858;4.472;2023-04-25T00:45:43;14.55;;;3.38;;
23714;SDS011;12036;50.858;4.472;2023-04-25T00:48:11;10.68;;;3.58;;
23714;SDS011;12036;50.858;4.472;2023-04-25T00:50:39;10.25;;;3.38;;
23714;SDS011;12036;50.858;4.472;2023-04-25T00:53:06;11.82;;;2.90;;
23714;SDS011;12036;50.858;4.472;2023-04-25T00:55:31;12.30;;;3.58;;
23714;SDS011;12036;50.858;4.472;2023-04-25T00:57:59;12.55;;;3.38;;
23714;SDS011;12036;50.858;4.472;2023-04-25T01:00:25;13.07;;;3.15;;
23714;SDS011;12036;50.858;4.472;2023-04-25T01:02:51;10.65;;;3.15;;
23714;SDS011;12036;50.858;4.472;2023-04-25T01:05:17;15.27;;;3.25;;
23714;SDS011;12036;50.858;4.472;2023-04-25T01:07:43;14.35;;;3.90;;
23714;SDS011;12036;50.858;4.472;2023-04-25T01:10:10;17.58;;;4.28;;
23714;SDS011;12036;50.858;4.472;2023-04-25T01:12:36;10.90;;;3.60;;
23714;SDS011;12036;50.858;4.472;2023-04-25T01:15:02;19.75;;;3.78;;
23714;SDS011;12036;50.858;4.472;2023-04-25T01:17:28;19.15;;;3.63;;
23714;SDS011;12036;50.858;4.472;2023-04-25T01:19:54;15.45;;;3.63;;
23714;SDS011;12036;50.858;4.472;2023-04-25T01:22:20;16.20;;;3.50;;
23714;SDS011;12036;50.858;4.472;2023-04-25T01:24:46;19.67;;;3.97;;
23714;SDS011;12036;50.858;4.472;2023-04-25T01:27:12;16.95;;;3.80;;
23714;SDS011;12036;50.858;4.472;2023-04-25T01:29:38;15.93;;;4.03;;
23714;SDS011;12036;50.858;4.472;2023-04-25T01:32:04;17.55;;;3.75;;
23714;SDS011;12036;50.858;4.472;2023-04-25T01:34:31;13.13;;;3.80;;
23714;SDS011;12036;50.858;4.472;2023-04-25T01:36:57;13.43;;;3.45;;
23714;SDS011;12036;50.858;4.472;2023-04-25T01:39:25;13.43;;;4.00;;
23714;SDS011;12036;50.858;4.472;2023-04-25T01:41:51;15.13;;;4.18;;
23714;SDS011;12036;50.858;4.472;2023-04-25T01:44:16;14.65;;;4.15;;
23714;SDS011;12036;50.858;4.472;2023-04-25T01:46:42;13.85;;;3.92;;
23714;SDS011;12036;50.858;4.472;2023-04-25T01:49:08;15.15;;;3.45;;
23714;SDS011;12036;50.858;4.472;2023-04-25T01:51:34;14.40;;;4.15;;
23714;SDS011;12036;50.858;4.472;2023-04-25T01:54:00;18.25;;;4.05;;
23714;SDS011;12036;50.858;4.472;2023-04-25T01:56:29;15.73;;;3.85;;
23714;SDS011;12036;50.858;4.472;2023-04-25T01:58:56;17.70;;;4.25;;
23714;SDS011;12036;50.858;4.472;2023-04-25T02:01:22;16.80;;;4.28;;
23714;SDS011;12036;50.858;4.472;2023-04-25T02:03:48;10.98;;;3.10;;
23714;SDS011;12036;50.858;4.472;2023-04-25T02:06:13;15.82;;;4.32;;
23714;SDS011;12036;50.858;4.472;2023-04-25T02:08:39;21.23;;;4.32;;
23714;SDS011;12036;50.858;4.472;2023-04-25T02:11:04;15.90;;;4.30;;
23714;SDS011;12036;50.858;4.472;2023-04-25T02:13:30;16.75;;;3.95;;
23714;SDS011;12036;50.858;4.472;2023-04-25T02:15:56;19.15;;;3.85;;
23714;SDS011;12036;50.858;4.472;2023-04-25T02:18:22;13.63;;;3.80;;
23714;SDS011;12036;50.858;4.472;2023-04-25T02:20:48;22.08;;;4.55;;
23714;SDS011;12036;50.858;4.472;2023-04-25T02:23:13;15.20;;;4.05;;
23714;SDS011;12036;50.858;4.472;2023-04-25T02:25:40;14.93;;;4.50;;
23714;SDS011;12036;50.858;4.472;2023-04-25T02:28:06;18.30;;;5.28;;
23714;SDS011;12036;50.858;4.472;2023-04-25T02:30:31;18.50;;;4.78;;
23714;SDS011;12036;50.858;4.472;2023-04-25T02:32:57;27.15;;;5.57;;
23714;SDS011;12036;50.858;4.472;2023-04-25T02:35:24;16.20;;;4.85;;
23714;SDS011;12036;50.858;4.472;2023-04-25T02:37:49;18.52;;;4.63;;
23714;SDS011;12036;50.858;4.472;2023-04-25T02:40:15;15.70;;;5.53;;
23714;SDS011;12036;50.858;4.472;2023-04-25T02:42:41;21.67;;;5.43;;
23714;SDS011;12036;50.858;4.472;2023-04-25T02:45:06;17.38;;;4.53;;
23714;SDS011;12036;50.858;4.472;2023-04-25T02:47:32;19.10;;;5.70;;
23714;SDS011;12036;50.858;4.472;2023-04-25T02:49:58;18.95;;;4.95;;
23714;SDS011;12036;50.858;4.472;2023-04-25T02:52:24;19.13;;;5.28;;
23714;SDS011;12036;50.858;4.472;2023-04-25T02:54:50;12.90;;;5.07;;
23714;SDS011;12036;50.858;4.472;2023-04-25T02:57:15;16.27;;;5.40;;
23714;SDS011;12036;50.858;4.472;2023-04-25T02:59:41;17.92;;;5.35;;
23714;SDS011;12036;50.858;4.472;2023-04-25T03:02:07;22.10;;;5.72;;
23714;SDS011;12036;50.858;4.472;2023-04-25T03:04:32;24.42;;;5.25;;
23714;SDS011;12036;50.858;4.472;2023-04-25T03:06:58;21.15;;;5.60;;
23714;SDS011;12036;50.858;4.472;2023-04-25T03:09:24;14.93;;;5.35;;
23714;SDS011;12036;50.858;4.472;2023-04-25T03:11:51;18.10;;;4.72;;
23714;SDS011;12036;50.858;4.472;2023-04-25T03:14:16;22.50;;;5.18;;
23714;SDS011;12036;50.858;4.472;2023-04-25T03:16:42;17.98;;;5.22;;
23714;SDS011;12036;50.858;4.472;2023-04-25T03:19:08;14.75;;;4.50;;
23714;SDS011;12036;50.858;4.472;2023-04-25T03:21:34;18.63;;;4.93;;
23714;SDS011;12036;50.858;4.472;2023-04-25T03:24:01;20.23;;;4.95;;
23714;SDS011;12036;50.858;4.472;2023-04-25T03:26:28;12.05;;;4.90;;
23714;SDS011;12036;50.858;4.472;2023-04-25T03:28:54;18.95;;;5.38;;
23714;SDS011;12036;50.858;4.472;2023-04-25T03:31:20;18.75;;;5.50;;
23714;SDS011;12036;50.858;4.472;2023-04-25T03:33:45;14.70;;;4.47;;
23714;SDS011;12036;50.858;4.472;2023-04-25T03:36:11;15.52;;;5.18;;
23714;SDS011;12036;50.858;4.472;2023-04-25T03:38:37;20.10;;;5.53;;
23714;SDS011;12036;50.858;4.472;2023-04-25T03:41:02;24.05;;;4.95;;
23714;SDS011;12036;50.858;4.472;2023-04-25T03:43:28;22.70;;;5.05;;
23714;SDS011;12036;50.858;4.472;2023-04-25T03:45:54;21.15;;;5.03;;
23714;SDS011;12036;50.858;4.472;2023-04-25T03:48:19;23.13;;;5.43;;
23714;SDS011;12036;50.858;4.472;2023-04-25T03:50:49;21.30;;;4.65;;
23714;SDS011;12036;50.858;4.472;2023-04-25T03:53:15;18.75;;;5.18;;
23714;SDS011;12036;50.858;4.472;2023-04-25T03:55:41;9.70;;;3.92;;
23714;SDS011;12036;50.858;4.472;2023-04-25T03:58:06;16.15;;;4.32;;
23714;SDS011;12036;50.858;4.472;2023-04-25T04:00:33;20.38;;;4.32;;
23714;SDS011;12036;50.858;4.472;2023-04-25T04:02:59;16.00;;;4.25;;
23714;SDS011;12036;50.858;4.472;2023-04-25T04:05:25;17.08;;;4.35;;
23714;SDS011;12036;50.858;4.472;2023-04-25T04:07:50;23.65;;;4.47;;
23714;SDS011;12036;50.858;4.472;2023-04-25T04:10:16;15.93;;;4.72;;
23714;SDS011;12036;50.858;4.472;2023-04-25T04:12:41;13.13;;;3.90;;
23714;SDS011;12036;50.858;4.472;2023-04-25T04:15:07;13.20;;;3.80;;
23714;SDS011;12036;50.858;4.472;2023-04-25T04:17:34;9.15;;;3.70;;
23714;SDS011;12036;50.858;4.472;2023-04-25T04:19:59;16.95;;;3.78;;
23714;SDS011;12036;50.858;4.472;2023-04-25T04:22:25;14.85;;;4.40;;
23714;SDS011;12036;50.858;4.472;2023-04-25T04:24:51;15.52;;;4.15;;
23714;SDS011;12036;50.858;4.472;2023-04-25T04:27:21;10.55;;;4.82;;
23714;SDS011;12036;50.858;4.472;2023-04-25T04:29:47;14.50;;;3.70;;
23714;SDS011;12036;50.858;4.472;2023-04-25T04:32:13;16.48;;;4.00;;
23714;SDS011;12036;50.858;4.472;2023-04-25T04:34:39;11.68;;;3.58;;
23714;SDS011;12036;50.858;4.472;2023-04-25T04:37:06;10.23;;;3.70;;
23714;SDS011;12036;50.858;4.472;2023-04-25T04:39:32;10.15;;;3.95;;
23714;SDS011;12036;50.858;4.472;2023-04-25T04:42:02;13.43;;;4.13;;
23714;SDS011;12036;50.858;4.472;2023-04-25T04:44:28;14.48;;;3.30;;
23714;SDS011;12036;50.858;4.472;2023-04-25T04:46:57;15.85;;;3.40;;
23714;SDS011;12036;50.858;4.472;2023-04-25T04:49:23;14.30;;;3.45;;
23714;SDS011;12036;50.858;4.472;2023-04-25T04:51:49;9.30;;;3.60;;
23714;SDS011;12036;50.858;4.472;2023-04-25T04:54:14;10.52;;;4.10;;
23714;SDS011;12036;50.858;4.472;2023-04-25T04:56:40;9.85;;;3.38;;
23714;SDS011;12036;50.858;4.472;2023-04-25T04:59:06;10.43;;;3.50;;
23714;SDS011;12036;50.858;4.472;2023-04-25T05:01:32;9.32;;;3.53;;
23714;SDS011;12036;50.858;4.472;2023-04-25T05:04:00;15.25;;;3.92;;
23714;SDS011;12036;50.858;4.472;2023-04-25T05:06:27;12.88;;;4.10;;
23714;SDS011;12036;50.858;4.472;2023-04-25T05:08:56;11.48;;;4.22;;
23714;SDS011;12036;50.858;4.472;2023-04-25T05:11:23;21.77;;;4.53;;
23714;SDS011;12036;50.858;4.472;2023-04-25T05:13:51;13.00;;;3.85;;
23714;SDS011;12036;50.858;4.472;2023-04-25T05:16:17;21.05;;;4.07;;
23714;SDS011;12036;50.858;4.472;2023-04-25T05:18:43;14.85;;;3.80;;
23714;SDS011;12036;50.858;4.472;2023-04-25T05:21:09;15.50;;;4.20;;
23714;SDS011;12036;50.858;4.472;2023-04-25T05:23:34;11.82;;;4.30;;
23714;SDS011;12036;50.858;4.472;2023-04-25T05:26:00;18.50;;;5.57;;
23714;SDS011;12036;50.858;4.472;2023-04-25T05:28:26;19.40;;;4.50;;
23714;SDS011;12036;50.858;4.472;2023-04-25T05:30:51;18.13;;;4.57;;
23714;SDS011;12036;50.858;4.472;2023-04-25T05:33:17;14.98;;;4.20;;
23714;SDS011;12036;50.858;4.472;2023-04-25T05:35:43;12.38;;;4.13;;
23714;SDS011;12036;50.858;4.472;2023-04-25T05:38:09;16.45;;;4.32;;
23714;SDS011;12036;50.858;4.472;2023-04-25T05:40:35;11.85;;;4.18;;
23714;SDS011;12036;50.858;4.472;2023-04-25T05:43:00;13.88;;;3.80;;
23714;SDS011;12036;50.858;4.472;2023-04-25T05:45:26;21.00;;;4.45;;
23714;SDS011;12036;50.858;4.472;2023-04-25T05:47:52;14.85;;;4.05;;
23714;SDS011;12036;50.858;4.472;2023-04-25T05:50:17;14.48;;;4.65;;
23714;SDS011;12036;50.858;4.472;2023-04-25T05:52:43;16.90;;;4.65;;
23714;SDS011;12036;50.858;4.472;2023-04-25T05:55:09;14.70;;;4.55;;
23714;SDS011;12036;50.858;4.472;2023-04-25T05:57:34;15.10;;;4.50;;
23714;SDS011;12036;50.858;4.472;2023-04-25T06:00:00;15.48;;;4.07;;
23714;SDS011;12036;50.858;4.472;2023-04-25T06:02:26;13.60;;;4.40;;
23714;SDS011;12036;50.858;4.472;2023-04-25T06:04:52;11.55;;;4.20;;
23714;SDS011;12036;50.858;4.472;2023-04-25T06:07:18;11.75;;;4.38;;
23714;SDS011;12036;50.858;4.472;2023-04-25T06:09:45;17.98;;;4.95;;
23714;SDS011;12036;50.858;4.472;2023-04-25T06:12:10;14.57;;;4.47;;
23714;SDS011;12036;50.858;4.472;2023-04-25T06:14:36;16.50;;;4.90;;
23714;SDS011;12036;50.858;4.472;2023-04-25T06:17:02;14.60;;;4.95;;
23714;SDS011;12036;50.858;4.472;2023-04-25T06:19:33;14.73;;;4.97;;
23714;SDS011;12036;50.858;4.472;2023-04-25T06:22:00;15.82;;;5.30;;
23714;SDS011;12036;50.858;4.472;2023-04-25T06:24:26;18.65;;;4.68;;
23714;SDS011;12036;50.858;4.472;2023-04-25T06:26:52;20.33;;;4.88;;
23714;SDS011;12036;50.858;4.472;2023-04-25T06:29:18;23.05;;;5.43;;
23714;SDS011;12036;50.858;4.472;2023-04-25T06:31:43;17.20;;;5.18;;
23714;SDS011;12036;50.858;4.472;2023-04-25T06:34:09;16.10;;;5.32;;
23714;SDS011;12036;50.858;4.472;2023-04-25T06:36:35;16.92;;;5.63;;
23714;SDS011;12036;50.858;4.472;2023-04-25T06:39:00;15.80;;;5.25;;
23714;SDS011;12036;50.858;4.472;2023-04-25T06:41:26;16.80;;;5.82;;
23714;SDS011;12036;50.858;4.472;2023-04-25T06:43:52;16.25;;;5.57;;
23714;SDS011;12036;50.858;4.472;2023-04-25T06:46:17;19.65;;;5.47;;
23714;SDS011;12036;50.858;4.472;2023-04-25T06:48:43;14.20;;;5.60;;
23714;SDS011;12036;50.858;4.472;2023-04-25T06:51:09;27.45;;;5.80;;
23714;SDS011;12036;50.858;4.472;2023-04-25T06:53:35;18.10;;;5.50;;
23714;SDS011;12036;50.858;4.472;2023-04-25T06:56:01;19.38;;;5.43;;
23714;SDS011;12036;50.858;4.472;2023-04-25T06:58:26;18.60;;;5.28;;
23714;SDS011;12036;50.858;4.472;2023-04-25T07:00:52;15.20;;;5.00;;
23714;SDS011;12036;50.858;4.472;2023-04-25T07:03:18;10.77;;;5.18;;
23714;SDS011;12036;50.858;4.472;2023-04-25T07:05:43;14.25;;;4.47;;
23714;SDS011;12036;50.858;4.472;2023-04-25T07:08:10;12.88;;;4.18;;
23714;SDS011;12036;50.858;4.472;2023-04-25T07:10:36;16.20;;;4.40;;
23714;SDS011;12036;50.858;4.472;2023-04-25T07:13:02;15.32;;;3.78;;
23714;SDS011;12036;50.858;4.472;2023-04-25T07:15:28;15.27;;;3.80;;
23714;SDS011;12036;50.858;4.472;2023-04-25T07:17:53;12.88;;;3.50;;
23714;SDS011;12036;50.858;4.472;2023-04-25T07:20:19;15.10;;;3.60;;
23714;SDS011;12036;50.858;4.472;2023-04-25T07:22:44;19.88;;;4.15;;
23714;SDS011;12036;50.858;4.472;2023-04-25T07:25:10;15.45;;;3.55;;
23714;SDS011;12036;50.858;4.472;2023-04-25T07:27:36;16.88;;;3.33;;
23714;SDS011;12036;50.858;4.472;2023-04-25T07:30:02;16.42;;;3.17;;
23714;SDS011;12036;50.858;4.472;2023-04-25T07:32:28;14.05;;;2.80;;
23714;SDS011;12036;50.858;4.472;2023-04-25T07:34:54;13.38;;;3.20;;
23714;SDS011;12036;50.858;4.472;2023-04-25T07:37:20;11.50;;;3.63;;
23714;SDS011;12036;50.858;4.472;2023-04-25T07:39:46;11.30;;;2.90;;
23714;SDS011;12036;50.858;4.472;2023-04-25T07:42:12;8.60;;;2.92;;
23714;SDS011;12036;50.858;4.472;2023-04-25T07:44:38;12.32;;;3.15;;
23714;SDS011;12036;50.858;4.472;2023-04-25T07:47:05;10.90;;;2.83;;
23714;SDS011;12036;50.858;4.472;2023-04-25T07:49:34;8.93;;;2.67;;
23714;SDS011;12036;50.858;4.472;2023-04-25T07:52:01;12.45;;;3.10;;
23714;SDS011;12036;50.858;4.472;2023-04-25T07:54:27;15.50;;;2.60;;
23714;SDS011;12036;50.858;4.472;2023-04-25T07:56:53;10.68;;;3.10;;
23714;SDS011;12036;50.858;4.472;2023-04-25T07:59:19;12.25;;;2.25;;
23714;SDS011;12036;50.858;4.472;2023-04-25T08:01:45;10.32;;;3.00;;
23714;SDS011;12036;50.858;4.472;2023-04-25T08:04:10;9.88;;;2.28;;
23714;SDS011;12036;50.858;4.472;2023-04-25T08:06:36;10.38;;;2.35;;
23714;SDS011;12036;50.858;4.472;2023-04-25T08:09:02;7.65;;;2.38;;
23714;SDS011;12036;50.858;4.472;2023-04-25T08:11:28;9.13;;;3.30;;
23714;SDS011;12036;50.858;4.472;2023-04-25T08:13:54;9.25;;;3.35;;
23714;SDS011;12036;50.858;4.472;2023-04-25T08:16:19;15.40;;;6.60;;
23714;SDS011;12036;50.858;4.472;2023-04-25T08:18:45;9.43;;;2.20;;
23714;SDS011;12036;50.858;4.472;2023-04-25T08:21:11;9.57;;;2.20;;
23714;SDS011;12036;50.858;4.472;2023-04-25T08:23:37;10.93;;;2.25;;
23714;SDS011;12036;50.858;4.472;2023-04-25T08:26:03;9.80;;;2.55;;
23714;SDS011;12036;50.858;4.472;2023-04-25T08:28:30;8.63;;;2.45;;
23714;SDS011;12036;50.858;4.472;2023-04-25T08:30:56;17.95;;;3.78;;
23714;SDS011;12036;50.858;4.472;2023-04-25T08:33:22;17.58;;;6.10;;
23714;SDS011;12036;50.858;4.472;2023-04-25T08:35:47;13.80;;;5.05;;
23714;SDS011;12036;50.858;4.472;2023-04-25T08:38:13;11.07;;;2.55;;
23714;SDS011;12036;50.858;4.472;2023-04-25T08:40:39;6.43;;;2.70;;
23714;SDS011;12036;50.858;4.472;2023-04-25T08:43:06;11.00;;;2.53;;
23714;SDS011;12036;50.858;4.472;2023-04-25T08:45:38;7.67;;;2.33;;
23714;SDS011;12036;50.858;4.472;2023-04-25T08:48:11;13.52;;;2.90;;
23714;SDS011;12036;50.858;4.472;2023-04-25T08:50:39;6.77;;;3.00;;
23714;SDS011;12036;50.858;4.472;2023-04-25T08:53:08;5.75;;;2.00;;
23714;SDS011;12036;50.858;4.472;2023-04-25T08:55:38;7.78;;;2.70;;
23714;SDS011;12036;50.858;4.472;2023-04-25T08:58:07;10.23;;;2.83;;
23714;SDS011;12036;50.858;4.472;2023-04-25T09:00:35;10.25;;;3.03;;
23714;SDS011;12036;50.858;4.472;2023-04-25T09:03:01;8.93;;;2.90;;
23714;SDS011;12036;50.858;4.472;2023-04-25T09:05:28;19.70;;;9.60;;
23714;SDS011;12036;50.858;4.472;2023-04-25T09:07:54;9.35;;;3.00;;
23714;SDS011;12036;50.858;4.472;2023-04-25T09:10:21;15.80;;;5.95;;
23714;SDS011;12036;50.858;4.472;2023-04-25T09:13:32;20.65;;;5.78;;
23714;SDS011;12036;50.858;4.472;2023-04-25T09:18:27;23.67;;;8.68;;
23714;SDS011;12036;50.858;4.472;2023-04-25T09:20:54;10.77;;;2.00;;
23714;SDS011;12036;50.858;4.472;2023-04-25T09:23:21;7.10;;;2.10;;
23714;SDS011;12036;50.858;4.472;2023-04-25T09:25:48;9.88;;;2.17;;
23714;SDS011;12036;50.858;4.472;2023-04-25T09:28:15;15.88;;;6.40;;
23714;SDS011;12036;50.858;4.472;2023-04-25T09:30:41;12.50;;;3.20;;
23714;SDS011;12036;50.858;4.472;2023-04-25T09:33:08;9.77;;;2.58;;
23714;SDS011;12036;50.858;4.472;2023-04-25T09:35:35;6.68;;;3.20;;
23714;SDS011;12036;50.858;4.472;2023-04-25T09:38:13;18.73;;;6.45;;
23714;SDS011;12036;50.858;4.472;2023-04-25T09:40:40;8.02;;;2.63;;
23714;SDS011;12036;50.858;4.472;2023-04-25T09:43:10;5.90;;;1.70;;
23714;SDS011;12036;50.858;4.472;2023-04-25T09:45:46;8.40;;;2.95;;
23714;SDS011;12036;50.858;4.472;2023-04-25T09:48:16;10.80;;;3.47;;
23714;SDS011;12036;50.858;4.472;2023-04-25T09:50:43;7.70;;;1.90;;
23714;SDS011;12036;50.858;4.472;2023-04-25T09:53:10;10.77;;;3.13;;
23714;SDS011;12036;50.858;4.472;2023-04-25T09:55:36;7.50;;;2.80;;
23714;SDS011;12036;50.858;4.472;2023-04-25T09:58:06;12.18;;;3.15;;
23714;SDS011;12036;50.858;4.472;2023-04-25T10:00:33;6.03;;;1.80;;
23714;SDS011;12036;50.858;4.472;2023-04-25T10:03:02;10.15;;;2.47;;
23714;SDS011;12036;50.858;4.472;2023-04-25T10:05:30;8.40;;;3.10;;
23714;SDS011;12036;50.858;4.472;2023-04-25T10:07:59;9.07;;;2.40;;
23714;SDS011;12036;50.858;4.472;2023-04-25T10:10:28;14.93;;;8.05;;
23714;SDS011;12036;50.858;4.472;2023-04-25T10:12:57;13.07;;;5.63;;
23714;SDS011;12036;50.858;4.472;2023-04-25T10:15:24;30.40;;;13.68;;
23714;SDS011;12036;50.858;4.472;2023-04-25T10:17:50;14.23;;;5.25;;
23714;SDS011;12036;50.858;4.472;2023-04-25T10:20:16;10.23;;;4.35;;
23714;SDS011;12036;50.858;4.472;2023-04-25T10:22:42;9.27;;;1.58;;
23714;SDS011;12036;50.858;4.472;2023-04-25T10:25:10;7.10;;;2.15;;
23714;SDS011;12036;50.858;4.472;2023-04-25T10:27:36;10.10;;;1.55;;
23714;SDS011;12036;50.858;4.472;2023-04-25T10:30:06;8.68;;;5.15;;
23714;SDS011;12036;50.858;4.472;2023-04-25T10:32:39;4.75;;;2.35;;
23714;SDS011;12036;50.858;4.472;2023-04-25T10:35:10;6.45;;;2.08;;
23714;SDS011;12036;50.858;4.472;2023-04-25T10:37:36;7.60;;;3.13;;
23714;SDS011;12036;50.858;4.472;2023-04-25T10:40:09;7.85;;;1.60;;
23714;SDS011;12036;50.858;4.472;2023-04-25T10:42:35;7.22;;;2.70;;
23714;SDS011;12036;50.858;4.472;2023-04-25T10:45:01;6.35;;;1.73;;
23714;SDS011;12036;50.858;4.472;2023-04-25T10:47:36;7.43;;;3.53;;
23714;SDS011;12036;50.858;4.472;2023-04-25T10:50:08;4.88;;;1.92;;
23714;SDS011;12036;50.858;4.472;2023-04-25T10:52:34;7.65;;;2.65;;
23714;SDS011;12036;50.858;4.472;2023-04-25T10:54:59;3.00;;;1.35;;
23714;SDS011;12036;50.858;4.472;2023-04-25T10:57:32;7.18;;;2.70;;
23714;SDS011;12036;50.858;4.472;2023-04-25T11:00:06;6.38;;;1.83;;
23714;SDS011;12036;50.858;4.472;2023-04-25T11:02:40;5.60;;;2.20;;
23714;SDS011;12036;50.858;4.472;2023-04-25T11:07:56;5.72;;;2.85;;
23714;SDS011;12036;50.858;4.472;2023-04-25T11:10:27;10.50;;;3.65;;
23714;SDS011;12036;50.858;4.472;2023-04-25T11:12:55;8.15;;;3.00;;
23714;SDS011;12036;50.858;4.472;2023-04-25T11:15:21;5.68;;;1.35;;
23714;SDS011;12036;50.858;4.472;2023-04-25T11:17:47;10.13;;;3.95;;
23714;SDS011;12036;50.858;4.472;2023-04-25T11:20:13;10.20;;;2.95;;
23714;SDS011;12036;50.858;4.472;2023-04-25T11:22:40;7.22;;;2.33;;
23714;SDS011;12036;50.858;4.472;2023-04-25T11:25:09;7.93;;;1.90;;
23714;SDS011;12036;50.858;4.472;2023-04-25T11:27:49;8.27;;;1.52;;
23714;SDS011;12036;50.858;4.472;2023-04-25T11:30:16;8.05;;;1.77;;
23714;SDS011;12036;50.858;4.472;2023-04-25T11:32:42;8.27;;;1.92;;
23714;SDS011;12036;50.858;4.472;2023-04-25T11:35:11;9.07;;;1.48;;
23714;SDS011;12036;50.858;4.472;2023-04-25T11:37:40;3.78;;;1.45;;
23714;SDS011;12036;50.858;4.472;2023-04-25T11:40:07;6.25;;;1.48;;
23714;SDS011;12036;50.858;4.472;2023-04-25T11:42:36;6.35;;;1.45;;
23714;SDS011;12036;50.858;4.472;2023-04-25T11:45:03;5.07;;;1.08;;
23714;SDS011;12036;50.858;4.472;2023-04-25T11:47:29;6.30;;;1.80;;
23714;SDS011;12036;50.858;4.472;2023-04-25T11:49:57;24.77;;;7.10;;
23714;SDS011;12036;50.858;4.472;2023-04-25T11:55:23;13.85;;;5.53;;
23714;SDS011;12036;50.858;4.472;2023-04-25T11:57:49;26.95;;;10.15;;
23714;SDS011;12036;50.858;4.472;2023-04-25T12:00:16;15.25;;;6.35;;
23714;SDS011;12036;50.858;4.472;2023-04-25T12:02:45;7.28;;;1.88;;
23714;SDS011;12036;50.858;4.472;2023-04-25T12:05:13;5.82;;;1.85;;
23714;SDS011;12036;50.858;4.472;2023-04-25T12:07:43;7.43;;;2.63;;
23714;SDS011;12036;50.858;4.472;2023-04-25T12:12:37;3.08;;;1.02;;
23714;SDS011;12036;50.858;4.472;2023-04-25T12:17:47;6.03;;;2.15;;
23714;SDS011;12036;50.858;4.472;2023-04-25T12:22:42;5.15;;;1.60;;
23714;SDS011;12036;50.858;4.472;2023-04-25T12:25:12;5.00;;;1.10;;
23714;SDS011;12036;50.858;4.472;2023-04-25T12:28:08;3.58;;;1.92;;
23714;SDS011;12036;50.858;4.472;2023-04-25T12:31:17;6.05;;;2.63;;
23714;SDS011;12036;50.858;4.472;2023-04-25T12:33:37;2.08;;;1.02;;
23714;SDS011;12036;50.858;4.472;2023-04-25T12:36:04;5.00;;;1.77;;
23714;SDS011;12036;50.858;4.472;2023-04-25T12:38:38;3.97;;;1.10;;
23714;SDS011;12036;50.858;4.472;2023-04-25T12:41:04;2.42;;;1.17;;
23714;SDS011;12036;50.858;4.472;2023-04-25T12:43:31;2.47;;;1.17;;
23714;SDS011;12036;50.858;4.472;2023-04-25T12:45:56;1.98;;;1.00;;
23714;SDS011;12036;50.858;4.472;2023-04-25T12:48:22;3.35;;;1.30;;
23714;SDS011;12036;50.858;4.472;2023-04-25T12:50:49;4.45;;;1.20;;
23714;SDS011;12036;50.858;4.472;2023-04-25T12:53:16;4.38;;;1.00;;
23714;SDS011;12036;50.858;4.472;2023-04-25T12:55:43;3.40;;;1.17;;
23714;SDS011;12036;50.858;4.472;2023-04-25T12:58:13;4.38;;;1.48;;
23714;SDS011;12036;50.858;4.472;2023-04-25T13:00:39;2.15;;;1.00;;
23714;SDS011;12036;50.858;4.472;2023-04-25T13:03:05;3.13;;;1.48;;
23714;SDS011;12036;50.858;4.472;2023-04-25T13:05:30;2.95;;;0.90;;
23714;SDS011;12036;50.858;4.472;2023-04-25T13:07:56;3.88;;;1.23;;
23714;SDS011;12036;50.858;4.472;2023-04-25T13:10:22;3.88;;;0.90;;
23714;SDS011;12036;50.858;4.472;2023-04-25T13:12:47;5.10;;;1.02;;
23714;SDS011;12036;50.858;4.472;2023-04-25T13:15:13;4.53;;;1.48;;
23714;SDS011;12036;50.858;4.472;2023-04-25T13:17:40;4.38;;;1.30;;
23714;SDS011;12036;50.858;4.472;2023-04-25T13:20:06;4.22;;;1.00;;
23714;SDS011;12036;50.858;4.472;2023-04-25T13:22:37;7.20;;;1.27;;
23714;SDS011;12036;50.858;4.472;2023-04-25T13:25:04;3.45;;;2.00;;
23714;SDS011;12036;50.858;4.472;2023-04-25T13:27:32;4.53;;;1.27;;
23714;SDS011;12036;50.858;4.472;2023-04-25T13:29:59;5.07;;;2.13;;
23714;SDS011;12036;50.858;4.472;2023-04-25T13:32:26;4.53;;;1.63;;
23714;SDS011;12036;50.858;4.472;2023-04-25T13:34:52;6.80;;;1.52;;
23714;SDS011;12036;50.858;4.472;2023-04-25T13:37:18;4.60;;;1.00;;
23714;SDS011;12036;50.858;4.472;2023-04-25T13:39:44;6.32;;;1.45;;
23714;SDS011;12036;50.858;4.472;2023-04-25T13:42:09;6.80;;;1.60;;
23714;SDS011;12036;50.858;4.472;2023-04-25T13:44:36;6.97;;;1.02;;
23714;SDS011;12036;50.858;4.472;2023-04-25T13:47:02;15.23;;;4.13;;
23714;SDS011;12036;50.858;4.472;2023-04-25T13:49:28;9.32;;;2.10;;
23714;SDS011;12036;50.858;4.472;2023-04-25T13:51:54;8.82;;;1.20;;
23714;SDS011;12036;50.858;4.472;2023-04-25T13:54:20;2.63;;;1.00;;
23714;SDS011;12036;50.858;4.472;2023-04-25T13:56:45;5.45;;;2.10;;
23714;SDS011;12036;50.858;4.472;2023-04-25T13:59:11;7.95;;;1.83;;
23714;SDS011;12036;50.858;4.472;2023-04-25T14:01:37;9.15;;;2.22;;
23714;SDS011;12036;50.858;4.472;2023-04-25T14:04:03;8.82;;;2.20;;
23714;SDS011;12036;50.858;4.472;2023-04-25T14:06:29;14.77;;;5.82;;
23714;SDS011;12036;50.858;4.472;2023-04-25T14:08:56;6.78;;;3.00;;
23714;SDS011;12036;50.858;4.472;2023-04-25T14:11:22;11.32;;;3.63;;
23714;SDS011;12036;50.858;4.472;2023-04-25T14:13:47;4.45;;;1.33;;
23714;SDS011;12036;50.858;4.472;2023-04-25T14:16:14;5.10;;;1.38;;
23714;SDS011;12036;50.858;4.472;2023-04-25T14:18:40;10.18;;;1.60;;
23714;SDS011;12036;50.858;4.472;2023-04-25T14:21:06;4.88;;;1.50;;
23714;SDS011;12036;50.858;4.472;2023-04-25T14:23:32;4.05;;;1.05;;
23714;SDS011;12036;50.858;4.472;2023-04-25T14:25:57;3.92;;;1.23;;
23714;SDS011;12036;50.858;4.472;2023-04-25T14:28:23;5.45;;;2.30;;
23714;SDS011;12036;50.858;4.472;2023-04-25T14:30:48;6.60;;;1.42;;
23714;SDS011;12036;50.858;4.472;2023-04-25T14:33:14;6.80;;;2.78;;
23714;SDS011;12036;50.858;4.472;2023-04-25T14:35:40;5.15;;;1.88;;
23714;SDS011;12036;50.858;4.472;2023-04-25T14:38:06;2.65;;;1.10;;
23714;SDS011;12036;50.858;4.472;2023-04-25T14:40:32;7.28;;;2.42;;
23714;SDS011;12036;50.858;4.472;2023-04-25T14:42:58;9.30;;;5.00;;
23714;SDS011;12036;50.858;4.472;2023-04-25T14:45:23;5.40;;;1.10;;
23714;SDS011;12036;50.858;4.472;2023-04-25T14:47:49;3.72;;;1.85;;
23714;SDS011;12036;50.858;4.472;2023-04-25T14:50:15;6.28;;;1.25;;
23714;SDS011;12036;50.858;4.472;2023-04-25T14:52:41;1.92;;;0.93;;